sensor_id;sensor_type;location;lat;lon;timestamp;temperature;humidity
67748;HTU21D;54543;50.712;6.070;2023-05-14T00:01:52;11.17;72.69
67748;HTU21D;54543;50.712;6.070;2023-05-14T00:04:18;11.16;72.65
67748;HTU21D;54543;50.712;6.070;2023-05-14T00:06:44;11.11;72.93
67748;HTU21D;54543;50.712;6.070;2023-05-14T00:09:11;11.07;73.12
67748;HTU21D;54543;50.712;6.070;2023-05-14T00:11:38;10.99;73.19
67748;HTU21D;54543;50.712;6.070;2023-05-14T00:14:04;10.97;73.36
67748;HTU21D;54543;50.712;6.070;2023-05-14T00:16:29;10.94;73.40
67748;HTU21D;54543;50.712;6.070;2023-05-14T00:18:55;10.92;73.54
67748;HTU21D;54543;50.712;6.070;2023-05-14T00:21:21;10.89;73.64
67748;HTU21D;54543;50.712;6.070;2023-05-14T00:23:46;10.88;73.78
67748;HTU21D;54543;50.712;6.070;2023-05-14T00:26:12;10.84;73.83
67748;HTU21D;54543;50.712;6.070;2023-05-14T00:28:37;10.83;73.90
67748;HTU21D;54543;50.712;6.070;2023-05-14T00:31:03;10.79;73.83
67748;HTU21D;54543;50.712;6.070;2023-05-14T00:33:29;10.73;74.04
67748;HTU21D;54543;50.712;6.070;2023-05-14T00:35:55;10.71;74.18
67748;HTU21D;54543;50.712;6.070;2023-05-14T00:38:21;10.70;74.29
67748;HTU21D;54543;50.712;6.070;2023-05-14T00:40:48;10.68;74.15
67748;HTU21D;54543;50.712;6.070;2023-05-14T00:43:19;10.68;74.54
67748;HTU21D;54543;50.712;6.070;2023-05-14T00:45:46;10.66;74.42
67748;HTU21D;54543;50.712;6.070;2023-05-14T00:48:13;10.63;74.48
67748;HTU21D;54543;50.712;6.070;2023-05-14T00:50:39;10.62;74.53
67748;HTU21D;54543;50.712;6.070;2023-05-14T00:53:05;10.60;74.50
67748;HTU21D;54543;50.712;6.070;2023-05-14T00:55:40;10.59;74.98
67748;HTU21D;54543;50.712;6.070;2023-05-14T00:58:09;10.57;74.62
67748;HTU21D;54543;50.712;6.070;2023-05-14T01:00:35;10.58;74.60
67748;HTU21D;54543;50.712;6.070;2023-05-14T01:03:02;10.53;75.01
67748;HTU21D;54543;50.712;6.070;2023-05-14T01:06:14;10.43;75.04
67748;HTU21D;54543;50.712;6.070;2023-05-14T01:11:18;10.25;75.62
67748;HTU21D;54543;50.712;6.070;2023-05-14T01:14:12;10.21;77.12
67748;HTU21D;54543;50.712;6.070;2023-05-14T01:16:39;10.11;76.30
67748;HTU21D;54543;50.712;6.070;2023-05-14T01:19:09;10.04;76.10
67748;HTU21D;54543;50.712;6.070;2023-05-14T01:21:44;10.00;76.05
67748;HTU21D;54543;50.712;6.070;2023-05-14T01:24:09;9.99;75.92
67748;HTU21D;54543;50.712;6.070;2023-05-14T01:26:35;9.99;76.02
67748;HTU21D;54543;50.712;6.070;2023-05-14T01:29:14;9.98;77.18
67748;HTU21D;54543;50.712;6.070;2023-05-14T01:31:42;9.98;76.10
67748;HTU21D;54543;50.712;6.070;2023-05-14T01:34:10;9.96;76.08
67748;HTU21D;54543;50.712;6.070;2023-05-14T01:36:37;9.95;75.92
67748;HTU21D;54543;50.712;6.070;2023-05-14T01:39:05;9.93;76.09
67748;HTU21D;54543;50.712;6.070;2023-05-14T01:41:34;9.92;76.21
67748;HTU21D;54543;50.712;6.070;2023-05-14T01:44:00;9.91;76.14
67748;HTU21D;54543;50.712;6.070;2023-05-14T01:46:30;9.91;76.63
67748;HTU21D;54543;50.712;6.070;2023-05-14T01:48:56;9.90;76.37
67748;HTU21D;54543;50.712;6.070;2023-05-14T01:51:22;9.86;76.24
67748;HTU21D;54543;50.712;6.070;2023-05-14T01:53:47;9.83;76.50
67748;HTU21D;54543;50.712;6.070;2023-05-14T01:56:13;9.81;76.56
67748;HTU21D;54543;50.712;6.070;2023-05-14T01:58:38;9.80;76.51
67748;HTU21D;54543;50.712;6.070;2023-05-14T02:01:04;9.80;76.44
67748;HTU21D;54543;50.712;6.070;2023-05-14T02:03:30;9.80;76.33
67748;HTU21D;54543;50.712;6.070;2023-05-14T02:05:55;9.77;76.37
67748;HTU21D;54543;50.712;6.070;2023-05-14T02:08:21;9.75;76.59
67748;HTU21D;54543;50.712;6.070;2023-05-14T02:10:47;9.71;76.64
67748;HTU21D;54543;50.712;6.070;2023-05-14T02:13:12;9.71;76.76
67748;HTU21D;54543;50.712;6.070;2023-05-14T02:15:38;9.72;76.73
67748;HTU21D;54543;50.712;6.070;2023-05-14T02:18:03;9.70;76.81
67748;HTU21D;54543;50.712;6.070;2023-05-14T02:20:29;9.66;76.69
67748;HTU21D;54543;50.712;6.070;2023-05-14T02:22:55;9.63;76.66
67748;HTU21D;54543;50.712;6.070;2023-05-14T02:25:22;9.54;76.95
67748;HTU21D;54543;50.712;6.070;2023-05-14T02:27:47;9.46;77.06
67748;HTU21D;54543;50.712;6.070;2023-05-14T02:30:13;9.44;77.22
67748;HTU21D;54543;50.712;6.070;2023-05-14T02:32:39;9.41;77.29
67748;HTU21D;54543;50.712;6.070;2023-05-14T02:35:05;9.38;77.48
67748;HTU21D;54543;50.712;6.070;2023-05-14T02:37:31;9.29;77.44
67748;HTU21D;54543;50.712;6.070;2023-05-14T02:39:56;9.21;77.16
67748;HTU21D;54543;50.712;6.070;2023-05-14T02:42:22;9.11;77.45
67748;HTU21D;54543;50.712;6.070;2023-05-14T02:44:48;9.07;77.70
67748;HTU21D;54543;50.712;6.070;2023-05-14T02:47:13;9.05;77.87
67748;HTU21D;54543;50.712;6.070;2023-05-14T02:49:39;9.05;77.95
67748;HTU21D;54543;50.712;6.070;2023-05-14T02:52:04;9.05;78.41
67748;HTU21D;54543;50.712;6.070;2023-05-14T02:54:30;9.00;78.11
67748;HTU21D;54543;50.712;6.070;2023-05-14T02:56:55;8.92;77.86
67748;HTU21D;54543;50.712;6.070;2023-05-14T02:59:22;8.88;77.85
67748;HTU21D;54543;50.712;6.070;2023-05-14T03:01:48;8.88;77.95
67748;HTU21D;54543;50.712;6.070;2023-05-14T03:04:14;8.91;78.00
67748;HTU21D;54543;50.712;6.070;2023-05-14T03:06:40;8.93;77.98
67748;HTU21D;54543;50.712;6.070;2023-05-14T03:09:05;8.93;78.04
67748;HTU21D;54543;50.712;6.070;2023-05-14T03:11:31;8.94;77.76
67748;HTU21D;54543;50.712;6.070;2023-05-14T03:13:57;8.92;77.69
67748;HTU21D;54543;50.712;6.070;2023-05-14T03:16:23;8.88;77.92
67748;HTU21D;54543;50.712;6.070;2023-05-14T03:18:48;8.88;77.94
67748;HTU21D;54543;50.712;6.070;2023-05-14T03:21:14;8.88;77.89
67748;HTU21D;54543;50.712;6.070;2023-05-14T03:23:40;8.89;78.01
67748;HTU21D;54543;50.712;6.070;2023-05-14T03:26:05;8.87;77.87
67748;HTU21D;54543;50.712;6.070;2023-05-14T03:28:31;8.86;77.76
67748;HTU21D;54543;50.712;6.070;2023-05-14T03:30:57;8.82;77.79
67748;HTU21D;54543;50.712;6.070;2023-05-14T03:33:22;8.79;77.98
67748;HTU21D;54543;50.712;6.070;2023-05-14T03:35:48;8.80;78.16
67748;HTU21D;54543;50.712;6.070;2023-05-14T03:38:13;8.79;78.25
67748;HTU21D;54543;50.712;6.070;2023-05-14T03:40:39;8.79;78.28
67748;HTU21D;54543;50.712;6.070;2023-05-14T03:43:05;8.80;78.27
67748;HTU21D;54543;50.712;6.070;2023-05-14T03:45:31;8.80;78.20
67748;HTU21D;54543;50.712;6.070;2023-05-14T03:47:57;8.77;78.26
67748;HTU21D;54543;50.712;6.070;2023-05-14T03:50:23;8.77;78.28
67748;HTU21D;54543;50.712;6.070;2023-05-14T03:52:50;8.76;78.31
67748;HTU21D;54543;50.712;6.070;2023-05-14T03:55:20;8.74;78.62
67748;HTU21D;54543;50.712;6.070;2023-05-14T03:57:47;8.68;78.45
67748;HTU21D;54543;50.712;6.070;2023-05-14T04:00:13;8.66;78.62
67748;HTU21D;54543;50.712;6.070;2023-05-14T04:02:40;8.65;78.59
67748;HTU21D;54543;50.712;6.070;2023-05-14T04:05:05;8.64;78.75
67748;HTU21D;54543;50.712;6.070;2023-05-14T04:07:31;8.64;78.77
67748;HTU21D;54543;50.712;6.070;2023-05-14T04:09:57;8.63;78.80
67748;HTU21D;54543;50.712;6.070;2023-05-14T04:12:24;8.63;78.71
67748;HTU21D;54543;50.712;6.070;2023-05-14T04:14:51;8.63;78.66
67748;HTU21D;54543;50.712;6.070;2023-05-14T04:17:17;8.63;78.73
67748;HTU21D;54543;50.712;6.070;2023-05-14T04:19:42;8.65;78.85
67748;HTU21D;54543;50.712;6.070;2023-05-14T04:22:09;8.67;78.92
67748;HTU21D;54543;50.712;6.070;2023-05-14T04:24:34;8.68;78.87
67748;HTU21D;54543;50.712;6.070;2023-05-14T04:27:00;8.71;79.00
67748;HTU21D;54543;50.712;6.070;2023-05-14T04:29:25;8.72;78.92
67748;HTU21D;54543;50.712;6.070;2023-05-14T04:31:52;8.72;78.88
67748;HTU21D;54543;50.712;6.070;2023-05-14T04:34:17;8.73;78.91
67748;HTU21D;54543;50.712;6.070;2023-05-14T04:36:43;8.75;78.98
67748;HTU21D;54543;50.712;6.070;2023-05-14T04:39:09;8.79;78.94
67748;HTU21D;54543;50.712;6.070;2023-05-14T04:41:36;8.82;78.91
67748;HTU21D;54543;50.712;6.070;2023-05-14T04:44:02;8.85;78.87
67748;HTU21D;54543;50.712;6.070;2023-05-14T04:46:28;8.89;78.78
67748;HTU21D;54543;50.712;6.070;2023-05-14T04:48:53;8.91;78.77
67748;HTU21D;54543;50.712;6.070;2023-05-14T04:51:19;8.93;78.87
67748;HTU21D;54543;50.712;6.070;2023-05-14T04:53:45;8.98;79.04
67748;HTU21D;54543;50.712;6.070;2023-05-14T04:56:10;9.01;78.87
67748;HTU21D;54543;50.712;6.070;2023-05-14T04:58:36;9.05;78.88
67748;HTU21D;54543;50.712;6.070;2023-05-14T05:01:03;9.10;79.08
67748;HTU21D;54543;50.712;6.070;2023-05-14T05:03:30;9.10;79.22
67748;HTU21D;54543;50.712;6.070;2023-05-14T05:05:56;9.17;79.43
67748;HTU21D;54543;50.712;6.070;2023-05-14T05:08:21;9.23;79.43
67748;HTU21D;54543;50.712;6.070;2023-05-14T05:10:47;9.30;79.29
67748;HTU21D;54543;50.712;6.070;2023-05-14T05:13:13;9.38;79.47
67748;HTU21D;54543;50.712;6.070;2023-05-14T05:15:39;9.45;79.43
67748;HTU21D;54543;50.712;6.070;2023-05-14T05:18:05;9.51;79.35
67748;HTU21D;54543;50.712;6.070;2023-05-14T05:20:31;9.60;79.43
67748;HTU21D;54543;50.712;6.070;2023-05-14T05:22:56;9.68;79.37
67748;HTU21D;54543;50.712;6.070;2023-05-14T05:25:22;9.76;79.14
67748;HTU21D;54543;50.712;6.070;2023-05-14T05:27:48;9.83;79.68
67748;HTU21D;54543;50.712;6.070;2023-05-14T05:30:13;9.86;79.93
67748;HTU21D;54543;50.712;6.070;2023-05-14T05:32:39;9.89;79.30
67748;HTU21D;54543;50.712;6.070;2023-05-14T05:35:05;9.94;78.91
67748;HTU21D;54543;50.712;6.070;2023-05-14T05:37:30;10.00;79.00
67748;HTU21D;54543;50.712;6.070;2023-05-14T05:39:56;10.06;79.22
67748;HTU21D;54543;50.712;6.070;2023-05-14T05:42:22;10.11;78.79
67748;HTU21D;54543;50.712;6.070;2023-05-14T05:44:48;10.19;78.50
67748;HTU21D;54543;50.712;6.070;2023-05-14T05:47:13;10.25;78.47
67748;HTU21D;54543;50.712;6.070;2023-05-14T05:49:39;10.30;80.07
67748;HTU21D;54543;50.712;6.070;2023-05-14T05:52:05;10.42;79.97
67748;HTU21D;54543;50.712;6.070;2023-05-14T05:54:31;10.48;79.21
67748;HTU21D;54543;50.712;6.070;2023-05-14T05:56:57;10.57;79.08
67748;HTU21D;54543;50.712;6.070;2023-05-14T05:59:26;10.64;80.64
67748;HTU21D;54543;50.712;6.070;2023-05-14T06:01:51;10.69;79.28
67748;HTU21D;54543;50.712;6.070;2023-05-14T06:04:17;10.73;80.28
67748;HTU21D;54543;50.712;6.070;2023-05-14T06:06:43;10.78;79.67
67748;HTU21D;54543;50.712;6.070;2023-05-14T06:09:08;10.75;81.39
67748;HTU21D;54543;50.712;6.070;2023-05-14T06:11:34;10.75;79.89
67748;HTU21D;54543;50.712;6.070;2023-05-14T06:14:00;10.74;81.02
67748;HTU21D;54543;50.712;6.070;2023-05-14T06:16:26;10.82;81.64
67748;HTU21D;54543;50.712;6.070;2023-05-14T06:18:52;10.84;81.02
67748;HTU21D;54543;50.712;6.070;2023-05-14T06:21:19;10.88;83.69
67748;HTU21D;54543;50.712;6.070;2023-05-14T06:23:44;10.97;83.07
67748;HTU21D;54543;50.712;6.070;2023-05-14T06:26:10;11.09;81.68
67748;HTU21D;54543;50.712;6.070;2023-05-14T06:28:36;11.20;82.92
67748;HTU21D;54543;50.712;6.070;2023-05-14T06:31:01;11.33;82.96
67748;HTU21D;54543;50.712;6.070;2023-05-14T06:33:27;11.44;83.36
67748;HTU21D;54543;50.712;6.070;2023-05-14T06:35:57;11.57;81.78
67748;HTU21D;54543;50.712;6.070;2023-05-14T06:38:23;11.66;82.49
67748;HTU21D;54543;50.712;6.070;2023-05-14T06:40:49;11.75;81.81
67748;HTU21D;54543;50.712;6.070;2023-05-14T06:43:15;11.85;81.94
67748;HTU21D;54543;50.712;6.070;2023-05-14T06:45:40;11.88;80.79
67748;HTU21D;54543;50.712;6.070;2023-05-14T06:48:06;11.90;79.46
67748;HTU21D;54543;50.712;6.070;2023-05-14T06:50:34;11.83;81.12
67748;HTU21D;54543;50.712;6.070;2023-05-14T06:53:00;11.87;81.31
67748;HTU21D;54543;50.712;6.070;2023-05-14T06:55:25;11.96;80.76
67748;HTU21D;54543;50.712;6.070;2023-05-14T06:57:51;11.97;80.36
67748;HTU21D;54543;50.712;6.070;2023-05-14T07:00:17;12.01;80.91
67748;HTU21D;54543;50.712;6.070;2023-05-14T07:02:43;12.13;80.59
67748;HTU21D;54543;50.712;6.070;2023-05-14T07:05:09;12.18;81.01
67748;HTU21D;54543;50.712;6.070;2023-05-14T07:07:35;12.23;80.88
67748;HTU21D;54543;50.712;6.070;2023-05-14T07:10:02;12.31;80.53
67748;HTU21D;54543;50.712;6.070;2023-05-14T07:12:27;12.41;81.66
67748;HTU21D;54543;50.712;6.070;2023-05-14T07:14:53;12.52;81.27
67748;HTU21D;54543;50.712;6.070;2023-05-14T07:17:21;12.61;80.71
67748;HTU21D;54543;50.712;6.070;2023-05-14T07:19:46;12.73;80.58
67748;HTU21D;54543;50.712;6.070;2023-05-14T07:22:12;12.81;81.63
67748;HTU21D;54543;50.712;6.070;2023-05-14T07:24:38;12.93;80.75
67748;HTU21D;54543;50.712;6.070;2023-05-14T07:27:03;12.96;79.90
67748;HTU21D;54543;50.712;6.070;2023-05-14T07:29:29;12.97;80.03
67748;HTU21D;54543;50.712;6.070;2023-05-14T07:31:55;12.97;79.67
67748;HTU21D;54543;50.712;6.070;2023-05-14T07:34:21;13.00;79.97
67748;HTU21D;54543;50.712;6.070;2023-05-14T07:36:46;13.04;80.07
67748;HTU21D;54543;50.712;6.070;2023-05-14T07:39:12;13.07;79.53
67748;HTU21D;54543;50.712;6.070;2023-05-14T07:41:37;13.08;79.52
67748;HTU21D;54543;50.712;6.070;2023-05-14T07:44:03;13.15;79.74
67748;HTU21D;54543;50.712;6.070;2023-05-14T07:46:30;13.25;79.51
67748;HTU21D;54543;50.712;6.070;2023-05-14T07:48:56;13.35;79.56
67748;HTU21D;54543;50.712;6.070;2023-05-14T07:51:21;13.51;79.34
67748;HTU21D;54543;50.712;6.070;2023-05-14T07:53:47;13.65;79.18
67748;HTU21D;54543;50.712;6.070;2023-05-14T07:56:12;13.77;78.31
67748;HTU21D;54543;50.712;6.070;2023-05-14T07:58:38;13.91;78.70
67748;HTU21D;54543;50.712;6.070;2023-05-14T08:01:04;14.14;77.31
67748;HTU21D;54543;50.712;6.070;2023-05-14T08:03:31;14.19;77.00
67748;HTU21D;54543;50.712;6.070;2023-05-14T08:05:58;14.24;76.92
67748;HTU21D;54543;50.712;6.070;2023-05-14T08:08:23;14.36;76.92
67748;HTU21D;54543;50.712;6.070;2023-05-14T08:10:49;14.45;76.49
67748;HTU21D;54543;50.712;6.070;2023-05-14T08:13:15;14.51;76.98
67748;HTU21D;54543;50.712;6.070;2023-05-14T08:15:41;14.64;76.47
67748;HTU21D;54543;50.712;6.070;2023-05-14T08:18:06;14.68;76.52
67748;HTU21D;54543;50.712;6.070;2023-05-14T08:20:32;14.74;75.74
67748;HTU21D;54543;50.712;6.070;2023-05-14T08:22:57;14.73;75.99
67748;HTU21D;54543;50.712;6.070;2023-05-14T08:25:23;14.79;76.25
67748;HTU21D;54543;50.712;6.070;2023-05-14T08:27:49;14.91;76.03
67748;HTU21D;54543;50.712;6.070;2023-05-14T08:30:14;15.00;75.70
67748;HTU21D;54543;50.712;6.070;2023-05-14T08:32:40;15.12;75.42
67748;HTU21D;54543;50.712;6.070;2023-05-14T08:35:06;15.27;75.01
67748;HTU21D;54543;50.712;6.070;2023-05-14T08:37:32;15.37;74.22
67748;HTU21D;54543;50.712;6.070;2023-05-14T08:39:59;15.45;74.17
67748;HTU21D;54543;50.712;6.070;2023-05-14T08:42:26;15.60;73.91
67748;HTU21D;54543;50.712;6.070;2023-05-14T08:45:01;15.68;73.86
67748;HTU21D;54543;50.712;6.070;2023-05-14T08:47:29;15.73;73.70
67748;HTU21D;54543;50.712;6.070;2023-05-14T08:52:23;15.91;72.93
67748;HTU21D;54543;50.712;6.070;2023-05-14T08:54:50;16.02;72.83
67748;HTU21D;54543;50.712;6.070;2023-05-14T08:57:17;16.15;72.52
67748;HTU21D;54543;50.712;6.070;2023-05-14T08:59:44;16.19;72.44
67748;HTU21D;54543;50.712;6.070;2023-05-14T09:02:13;16.20;72.66
67748;HTU21D;54543;50.712;6.070;2023-05-14T09:04:39;16.14;72.54
67748;HTU21D;54543;50.712;6.070;2023-05-14T09:07:06;16.07;72.97
67748;HTU21D;54543;50.712;6.070;2023-05-14T09:09:32;16.14;72.93
67748;HTU21D;54543;50.712;6.070;2023-05-14T09:11:58;16.13;72.53
67748;HTU21D;54543;50.712;6.070;2023-05-14T09:14:26;16.01;72.67
67748;HTU21D;54543;50.712;6.070;2023-05-14T09:16:51;16.03;73.12
67748;HTU21D;54543;50.712;6.070;2023-05-14T09:19:19;16.20;72.70
67748;HTU21D;54543;50.712;6.070;2023-05-14T09:21:46;16.27;71.84
67748;HTU21D;54543;50.712;6.070;2023-05-14T09:24:23;16.25;72.22
67748;HTU21D;54543;50.712;6.070;2023-05-14T09:26:51;16.48;71.58
67748;HTU21D;54543;50.712;6.070;2023-05-14T09:29:17;16.52;71.03
67748;HTU21D;54543;50.712;6.070;2023-05-14T09:31:43;16.59;71.22
67748;HTU21D;54543;50.712;6.070;2023-05-14T09:34:08;16.79;70.58
67748;HTU21D;54543;50.712;6.070;2023-05-14T09:36:34;16.93;69.88
67748;HTU21D;54543;50.712;6.070;2023-05-14T09:39:02;16.98;69.70
67748;HTU21D;54543;50.712;6.070;2023-05-14T09:41:28;16.87;69.22
67748;HTU21D;54543;50.712;6.070;2023-05-14T09:43:54;16.58;69.92
67748;HTU21D;54543;50.712;6.070;2023-05-14T09:46:21;16.44;70.71
67748;HTU21D;54543;50.712;6.070;2023-05-14T09:48:48;16.43;71.00
67748;HTU21D;54543;50.712;6.070;2023-05-14T09:51:14;16.44;71.17
67748;HTU21D;54543;50.712;6.070;2023-05-14T09:53:43;16.39;71.41
67748;HTU21D;54543;50.712;6.070;2023-05-14T09:56:09;16.40;71.14
67748;HTU21D;54543;50.712;6.070;2023-05-14T09:58:34;16.54;71.08
67748;HTU21D;54543;50.712;6.070;2023-05-14T10:01:00;16.78;70.34
67748;HTU21D;54543;50.712;6.070;2023-05-14T10:03:28;17.02;69.45
67748;HTU21D;54543;50.712;6.070;2023-05-14T10:05:57;17.04;68.94
67748;HTU21D;54543;50.712;6.070;2023-05-14T10:08:32;17.06;68.90
67748;HTU21D;54543;50.712;6.070;2023-05-14T10:10:58;17.14;68.26
67748;HTU21D;54543;50.712;6.070;2023-05-14T10:13:36;17.08;68.34
67748;HTU21D;54543;50.712;6.070;2023-05-14T10:18:46;16.72;69.77
67748;HTU21D;54543;50.712;6.070;2023-05-14T10:21:19;16.81;69.37
67748;HTU21D;54543;50.712;6.070;2023-05-14T10:23:46;17.00;68.67
67748;HTU21D;54543;50.712;6.070;2023-05-14T10:26:12;17.14;68.88
67748;HTU21D;54543;50.712;6.070;2023-05-14T10:28:38;17.32;68.19
67748;HTU21D;54543;50.712;6.070;2023-05-14T10:31:03;17.36;67.85
67748;HTU21D;54543;50.712;6.070;2023-05-14T10:33:29;17.43;67.38
67748;HTU21D;54543;50.712;6.070;2023-05-14T10:36:06;17.46;67.22
67748;HTU21D;54543;50.712;6.070;2023-05-14T10:38:36;17.61;66.95
67748;HTU21D;54543;50.712;6.070;2023-05-14T10:41:09;17.76;66.38
67748;HTU21D;54543;50.712;6.070;2023-05-14T10:43:38;17.85;66.57
67748;HTU21D;54543;50.712;6.070;2023-05-14T10:46:05;17.90;66.16
67748;HTU21D;54543;50.712;6.070;2023-05-14T10:48:32;17.90;66.33
67748;HTU21D;54543;50.712;6.070;2023-05-14T10:50:58;17.97;66.24
67748;HTU21D;54543;50.712;6.070;2023-05-14T10:53:41;18.06;65.45
67748;HTU21D;54543;50.712;6.070;2023-05-14T10:56:11;18.11;65.86
67748;HTU21D;54543;50.712;6.070;2023-05-14T10:58:41;18.25;65.94
67748;HTU21D;54543;50.712;6.070;2023-05-14T11:01:09;18.43;65.61
67748;HTU21D;54543;50.712;6.070;2023-05-14T11:03:42;18.53;65.08
67748;HTU21D;54543;50.712;6.070;2023-05-14T11:06:10;18.59;64.77
67748;HTU21D;54543;50.712;6.070;2023-05-14T11:08:37;18.53;65.24
67748;HTU21D;54543;50.712;6.070;2023-05-14T11:11:03;18.54;64.15
67748;HTU21D;54543;50.712;6.070;2023-05-14T11:13:29;18.50;65.54
67748;HTU21D;54543;50.712;6.070;2023-05-14T11:15:56;18.59;65.51
67748;HTU21D;54543;50.712;6.070;2023-05-14T11:18:30;18.76;65.13
67748;HTU21D;54543;50.712;6.070;2023-05-14T11:20:58;18.88;64.43
67748;HTU21D;54543;50.712;6.070;2023-05-14T11:23:24;18.96;64.83
67748;HTU21D;54543;50.712;6.070;2023-05-14T11:25:51;19.09;64.69
67748;HTU21D;54543;50.712;6.070;2023-05-14T11:28:22;19.25;64.39
67748;HTU21D;54543;50.712;6.070;2023-05-14T11:30:48;19.37;64.03
67748;HTU21D;54543;50.712;6.070;2023-05-14T11:33:15;19.48;63.82
67748;HTU21D;54543;50.712;6.070;2023-05-14T11:35:41;19.56;63.91
67748;HTU21D;54543;50.712;6.070;2023-05-14T11:38:13;19.74;63.37
67748;HTU21D;54543;50.712;6.070;2023-05-14T11:40:39;19.83;63.16
67748;HTU21D;54543;50.712;6.070;2023-05-14T11:43:05;19.90;63.00
67748;HTU21D;54543;50.712;6.070;2023-05-14T11:45:31;20.05;62.67
67748;HTU21D;54543;50.712;6.070;2023-05-14T11:47:57;20.20;62.82
67748;HTU21D;54543;50.712;6.070;2023-05-14T11:50:23;20.39;62.56
67748;HTU21D;54543;50.712;6.070;2023-05-14T11:52:48;20.58;62.31
67748;HTU21D;54543;50.712;6.070;2023-05-14T11:55:16;20.73;61.81
67748;HTU21D;54543;50.712;6.070;2023-05-14T11:57:41;20.60;62.03
67748;HTU21D;54543;50.712;6.070;2023-05-14T12:00:09;20.40;62.25
67748;HTU21D;54543;50.712;6.070;2023-05-14T12:02:37;20.24;62.75
67748;HTU21D;54543;50.712;6.070;2023-05-14T12:05:06;20.29;61.23
67748;HTU21D;54543;50.712;6.070;2023-05-14T12:07:31;20.39;62.20
67748;HTU21D;54543;50.712;6.070;2023-05-14T12:10:00;20.59;61.05
67748;HTU21D;54543;50.712;6.070;2023-05-14T12:12:26;20.53;61.06
67748;HTU21D;54543;50.712;6.070;2023-05-14T12:14:52;20.42;59.93
67748;HTU21D;54543;50.712;6.070;2023-05-14T12:17:20;20.30;59.65
67748;HTU21D;54543;50.712;6.070;2023-05-14T12:19:50;20.20;59.99
67748;HTU21D;54543;50.712;6.070;2023-05-14T12:22:18;20.02;61.15
67748;HTU21D;54543;50.712;6.070;2023-05-14T12:24:55;19.89;61.28
67748;HTU21D;54543;50.712;6.070;2023-05-14T12:27:25;19.82;62.41
67748;HTU21D;54543;50.712;6.070;2023-05-14T12:30:02;19.85;59.83
67748;HTU21D;54543;50.712;6.070;2023-05-14T12:32:33;19.92;61.50
67748;HTU21D;54543;50.712;6.070;2023-05-14T12:34:59;20.02;62.01
67748;HTU21D;54543;50.712;6.070;2023-05-14T12:37:28;20.30;61.02
67748;HTU21D;54543;50.712;6.070;2023-05-14T12:39:53;20.42;60.45
67748;HTU21D;54543;50.712;6.070;2023-05-14T12:42:19;20.49;59.99
67748;HTU21D;54543;50.712;6.070;2023-05-14T12:44:45;20.54;59.67
67748;HTU21D;54543;50.712;6.070;2023-05-14T12:47:10;20.55;59.70
67748;HTU21D;54543;50.712;6.070;2023-05-14T12:49:36;20.74;59.03
67748;HTU21D;54543;50.712;6.070;2023-05-14T12:52:03;20.98;58.45
67748;HTU21D;54543;50.712;6.070;2023-05-14T12:54:29;21.22;57.11
67748;HTU21D;54543;50.712;6.070;2023-05-14T12:56:56;21.46;56.79
67748;HTU21D;54543;50.712;6.070;2023-05-14T12:59:22;21.59;55.59
67748;HTU21D;54543;50.712;6.070;2023-05-14T13:01:47;21.69;55.89
67748;HTU21D;54543;50.712;6.070;2023-05-14T13:04:13;21.85;55.25
67748;HTU21D;54543;50.712;6.070;2023-05-14T13:06:39;22.05;54.30
67748;HTU21D;54543;50.712;6.070;2023-05-14T13:09:06;22.19;54.05
67748;HTU21D;54543;50.712;6.070;2023-05-14T13:11:32;22.31;54.14
67748;HTU21D;54543;50.712;6.070;2023-05-14T13:13:58;22.28;53.45
67748;HTU21D;54543;50.712;6.070;2023-05-14T13:16:27;22.24;45.90
67748;HTU21D;54543;50.712;6.070;2023-05-14T13:18:53;22.19;52.64
67748;HTU21D;54543;50.712;6.070;2023-05-14T13:21:19;22.26;52.09
67748;HTU21D;54543;50.712;6.070;2023-05-14T13:23:46;22.27;52.44
67748;HTU21D;54543;50.712;6.070;2023-05-14T13:26:11;22.28;51.66
67748;HTU21D;54543;50.712;6.070;2023-05-14T13:28:37;22.39;51.64
67748;HTU21D;54543;50.712;6.070;2023-05-14T13:31:09;22.49;49.02
67748;HTU21D;54543;50.712;6.070;2023-05-14T13:33:38;22.56;50.49
67748;HTU21D;54543;50.712;6.070;2023-05-14T13:36:04;22.65;50.20
67748;HTU21D;54543;50.712;6.070;2023-05-14T13:38:29;22.83;50.87
67748;HTU21D;54543;50.712;6.070;2023-05-14T13:40:56;23.06;50.74
67748;HTU21D;54543;50.712;6.070;2023-05-14T13:43:26;23.28;49.66
67748;HTU21D;54543;50.712;6.070;2023-05-14T13:45:51;23.28;49.98
67748;HTU21D;54543;50.712;6.070;2023-05-14T13:48:17;23.22;49.26
67748;HTU21D;54543;50.712;6.070;2023-05-14T13:50:43;23.05;48.47
67748;HTU21D;54543;50.712;6.070;2023-05-14T13:53:08;22.88;48.87
67748;HTU21D;54543;50.712;6.070;2023-05-14T13:55:34;22.64;49.27
67748;HTU21D;54543;50.712;6.070;2023-05-14T13:58:00;22.41;49.60
67748;HTU21D;54543;50.712;6.070;2023-05-14T14:00:26;22.12;49.69
67748;HTU21D;54543;50.712;6.070;2023-05-14T14:02:52;21.80;49.91
67748;HTU21D;54543;50.712;6.070;2023-05-14T14:05:17;21.58;50.79
67748;HTU21D;54543;50.712;6.070;2023-05-14T14:07:43;21.50;51.39
67748;HTU21D;54543;50.712;6.070;2023-05-14T14:10:09;21.48;51.59
67748;HTU21D;54543;50.712;6.070;2023-05-14T14:12:35;21.52;51.89
67748;HTU21D;54543;50.712;6.070;2023-05-14T14:15:01;21.76;51.76
67748;HTU21D;54543;50.712;6.070;2023-05-14T14:17:27;21.90;50.94
67748;HTU21D;54543;50.712;6.070;2023-05-14T14:19:53;21.97;51.10
67748;HTU21D;54543;50.712;6.070;2023-05-14T14:22:19;22.03;50.76
67748;HTU21D;54543;50.712;6.070;2023-05-14T14:24:44;22.06;50.84
67748;HTU21D;54543;50.712;6.070;2023-05-14T14:27:10;22.07;50.49
67748;HTU21D;54543;50.712;6.070;2023-05-14T14:29:36;22.09;50.56
67748;HTU21D;54543;50.712;6.070;2023-05-14T14:32:02;22.09;50.81
67748;HTU21D;54543;50.712;6.070;2023-05-14T14:34:28;22.21;51.58
67748;HTU21D;54543;50.712;6.070;2023-05-14T14:36:53;22.57;51.22
67748;HTU21D;54543;50.712;6.070;2023-05-14T14:39:19;22.94;51.87
67748;HTU21D;54543;50.712;6.070;2023-05-14T14:41:45;23.38;49.43
67748;HTU21D;54543;50.712;6.070;2023-05-14T14:44:12;23.47;48.92
67748;HTU21D;54543;50.712;6.070;2023-05-14T14:46:37;23.37;47.49
67748;HTU21D;54543;50.712;6.070;2023-05-14T14:49:03;23.05;47.04
67748;HTU21D;54543;50.712;6.070;2023-05-14T14:51:29;22.68;48.08
67748;HTU21D;54543;50.712;6.070;2023-05-14T14:53:55;22.46;48.16
67748;HTU21D;54543;50.712;6.070;2023-05-14T14:56:21;22.25;48.85
67748;HTU21D;54543;50.712;6.070;2023-05-14T14:58:46;22.05;49.05
67748;HTU21D;54543;50.712;6.070;2023-05-14T15:01:12;21.87;49.45
67748;HTU21D;54543;50.712;6.070;2023-05-14T15:03:37;21.73;49.57
67748;HTU21D;54543;50.712;6.070;2023-05-14T15:06:03;21.63;49.37
67748;HTU21D;54543;50.712;6.070;2023-05-14T15:08:29;21.50;49.18
67748;HTU21D;54543;50.712;6.070;2023-05-14T15:10:55;21.44;47.91
67748;HTU21D;54543;50.712;6.070;2023-05-14T15:13:21;21.33;49.03
67748;HTU21D;54543;50.712;6.070;2023-05-14T15:15:49;21.29;49.15
67748;HTU21D;54543;50.712;6.070;2023-05-14T15:18:14;21.30;48.95
67748;HTU21D;54543;50.712;6.070;2023-05-14T15:20:40;21.33;48.82
67748;HTU21D;54543;50.712;6.070;2023-05-14T15:23:06;21.44;48.96
67748;HTU21D;54543;50.712;6.070;2023-05-14T15:25:31;21.64;49.30